Time;durP1;ratioP1;P1;durP2;ratioP2;P2;SDS_P1;SDS_P2;PMS_P1;PMS_P2;Temp;Humidity;BMP_temperature;BMP_pressure;BME280_temperature;BME280_humidity;BME280_pressure;Samples;Min_cycle;Max_cycle;Signal;HPM_P1;HPM_P2
2022/06/26 00:01:34;;;;;;;12.43;11.13;;;17.30;99.90;;;;;;5037326;28;20222;-44
2022/06/26 00:04:03;;;;;;;14.15;11.65;;;17.30;99.90;;;;;;5043143;28;20151;-45
2022/06/26 00:06:31;;;;;;;15.43;11.93;;;17.30;99.90;;;;;;5042995;28;20045;-42
2022/06/26 00:08:57;;;;;;;15.13;11.60;;;17.40;99.90;;;;;;5042759;28;20665;-46
2022/06/26 00:11:23;;;;;;;15.50;12.15;;;17.40;99.90;;;;;;5042184;28;20094;-45
2022/06/26 00:13:49;;;;;;;14.15;10.95;;;17.40;99.90;;;;;;5042841;28;20049;-44
2022/06/26 00:16:16;;;;;;;13.30;10.52;;;17.40;99.90;;;;;;5042363;28;20154;-44
2022/06/26 00:18:42;;;;;;;13.18;9.45;;;17.40;99.90;;;;;;5041756;28;20284;-44
2022/06/26 00:21:08;;;;;;;17.13;10.73;;;17.20;99.90;;;;;;5040548;28;20061;-44
2022/06/26 00:23:34;;;;;;;15.88;11.52;;;17.20;99.90;;;;;;5042760;28;20053;-45
2022/06/26 00:26:02;;;;;;;18.00;13.25;;;17.20;99.90;;;;;;5043720;28;20048;-45
2022/06/26 00:28:28;;;;;;;14.55;12.98;;;17.20;99.90;;;;;;5043743;28;20124;-46
2022/06/26 00:30:54;;;;;;;20.40;14.93;;;17.30;99.90;;;;;;5043458;28;20430;-44
2022/06/26 00:33:20;;;;;;;17.35;12.70;;;17.30;99.90;;;;;;5042369;28;20057;-44
2022/06/26 00:35:45;;;;;;;20.30;14.20;;;17.40;99.90;;;;;;5043518;28;20106;-45
2022/06/26 00:38:11;;;;;;;18.02;15.20;;;17.40;99.90;;;;;;5045227;28;20521;-45
2022/06/26 00:40:38;;;;;;;17.17;14.43;;;17.40;99.90;;;;;;5044755;28;20053;-46
2022/06/26 00:43:10;;;;;;;15.90;13.43;;;17.40;99.90;;;;;;5043214;28;20080;-45
2022/06/26 00:45:35;;;;;;;18.95;14.48;;;17.50;99.90;;;;;;5034816;28;20050;-45
2022/06/26 00:48:02;;;;;;;14.95;12.65;;;17.50;99.90;;;;;;5036523;28;20057;-46
2022/06/26 00:50:35;;;;;;;18.00;13.25;;;17.50;99.90;;;;;;5038667;28;20049;-44
2022/06/26 00:53:01;;;;;;;18.48;14.13;;;17.60;99.90;;;;;;5037264;28;20131;-44
2022/06/26 00:55:27;;;;;;;16.70;13.15;;;17.50;99.90;;;;;;5044765;28;20438;-44
2022/06/26 00:57:53;;;;;;;14.20;12.07;;;17.50;99.90;;;;;;5043574;28;20107;-48
2022/06/26 01:00:20;;;;;;;15.40;12.07;;;17.50;99.90;;;;;;5042238;28;20499;-47
2022/06/26 01:02:46;;;;;;;17.27;13.27;;;17.50;99.90;;;;;;5041210;28;20075;-48
2022/06/26 01:05:12;;;;;;;14.23;11.75;;;17.60;99.90;;;;;;5041228;28;20041;-48
2022/06/26 01:07:39;;;;;;;14.80;10.90;;;17.50;99.90;;;;;;5041639;28;20059;-44
2022/06/26 01:10:05;;;;;;;14.18;10.77;;;17.50;99.90;;;;;;5041037;28;20059;-45
2022/06/26 01:12:31;;;;;;;14.48;11.60;;;17.50;99.90;;;;;;5039250;28;20056;-44
2022/06/26 01:14:58;;;;;;;15.13;11.50;;;17.50;99.90;;;;;;5037389;28;20118;-45
2022/06/26 01:17:24;;;;;;;14.18;12.05;;;17.50;99.90;;;;;;5041275;28;20052;-44
2022/06/26 01:19:50;;;;;;;15.70;11.43;;;17.60;99.90;;;;;;5042054;28;20033;-45
2022/06/26 01:22:16;;;;;;;14.00;12.02;;;17.60;99.90;;;;;;5041216;28;20052;-45
2022/06/26 01:24:42;;;;;;;13.40;11.48;;;17.60;99.90;;;;;;5041886;28;20041;-44
2022/06/26 01:27:07;;;;;;;15.35;11.80;;;17.50;99.90;;;;;;5039889;28;20145;-45
2022/06/26 01:29:33;;;;;;;13.95;10.48;;;17.50;99.90;;;;;;5041438;28;20052;-43
2022/06/26 01:31:59;;;;;;;14.35;10.77;;;17.50;99.90;;;;;;5041972;28;20049;-45
2022/06/26 01:34:25;;;;;;;11.63;10.43;;;17.50;99.90;;;;;;5041719;28;20049;-44
2022/06/26 01:36:50;;;;;;;16.75;11.20;;;17.50;99.90;;;;;;5041421;28;20167;-44
2022/06/26 01:39:20;;;;;;;12.20;10.38;;;17.50;99.90;;;;;;5041480;28;20044;-46
2022/06/26 01:41:47;;;;;;;15.45;11.77;;;17.50;99.90;;;;;;5039348;28;20104;-44
2022/06/26 01:44:13;;;;;;;12.32;11.00;;;17.50;99.90;;;;;;5039244;28;20053;-45
2022/06/26 01:46:39;;;;;;;16.27;11.57;;;17.50;99.90;;;;;;5040986;28;20049;-44
2022/06/26 01:49:05;;;;;;;15.50;12.00;;;17.50;99.90;;;;;;5024887;28;20045;-44
2022/06/26 01:51:31;;;;;;;13.77;12.43;;;17.40;99.90;;;;;;5018961;28;20053;-43
2022/06/26 01:53:56;;;;;;;12.35;10.93;;;17.40;99.90;;;;;;5003818;28;20053;-43
2022/06/26 01:56:22;;;;;;;17.27;11.15;;;17.30;99.90;;;;;;5021901;28;20044;-43
2022/06/26 01:58:48;;;;;;;15.13;11.30;;;17.40;99.90;;;;;;5021609;28;20663;-44
2022/06/26 02:01:14;;;;;;;20.08;11.93;;;17.30;99.90;;;;;;5016266;28;20117;-46
2022/06/26 02:03:40;;;;;;;13.63;11.10;;;17.30;99.90;;;;;;5012397;28;20128;-46
2022/06/26 02:06:05;;;;;;;14.35;10.40;;;17.40;99.90;;;;;;5019879;28;20045;-46
2022/06/26 02:08:31;;;;;;;14.68;11.38;;;17.30;99.90;;;;;;5017539;28;20045;-43
2022/06/26 02:13:43;;;;;;;15.00;11.88;;;17.40;99.90;;;;;;5022691;28;20045;-43
2022/06/26 02:16:14;;;;;;;13.55;11.75;;;17.30;99.90;;;;;;5012189;28;20172;-47
2022/06/26 02:18:41;;;;;;;17.55;11.15;;;17.30;99.90;;;;;;5021447;28;20056;-44
2022/06/26 02:21:09;;;;;;;12.63;10.85;;;17.30;99.90;;;;;;5015335;28;20231;-46
2022/06/26 02:23:36;;;;;;;16.13;10.45;;;17.20;99.90;;;;;;5020880;28;20048;-47
2022/06/26 02:26:04;;;;;;;11.82;9.93;;;17.30;99.90;;;;;;5019304;28;20079;-46
2022/06/26 02:28:30;;;;;;;12.15;8.70;;;17.30;99.90;;;;;;5002562;28;20084;-47
2022/06/26 02:30:56;;;;;;;10.90;8.90;;;17.20;99.90;;;;;;5037936;28;20131;-45
2022/06/26 02:33:22;;;;;;;9.18;7.40;;;17.30;99.90;;;;;;5026383;28;20156;-43
2022/06/26 02:35:49;;;;;;;10.05;6.72;;;17.20;99.90;;;;;;5026205;28;20496;-48
2022/06/26 02:38:18;;;;;;;8.73;6.80;;;17.20;99.90;;;;;;5002105;28;20057;-45
2022/06/26 02:40:44;;;;;;;7.65;6.63;;;17.20;99.90;;;;;;5021279;28;20485;-45
2022/06/26 02:43:13;;;;;;;9.75;7.30;;;17.20;99.90;;;;;;5020230;28;20049;-45
2022/06/26 02:45:39;;;;;;;8.88;6.28;;;17.20;99.90;;;;;;5019119;28;20049;-45
2022/06/26 02:48:05;;;;;;;7.15;5.90;;;17.20;99.90;;;;;;4999601;28;20064;-45
2022/06/26 02:50:31;;;;;;;7.78;6.28;;;17.30;99.90;;;;;;5017633;28;20057;-44
2022/06/26 02:52:57;;;;;;;5.85;5.20;;;17.20;99.90;;;;;;5017825;28;20123;-44
2022/06/26 02:55:22;;;;;;;5.78;5.13;;;17.20;99.90;;;;;;5020576;28;20383;-43
2022/06/26 02:57:48;;;;;;;7.55;5.68;;;17.20;99.90;;;;;;5017388;28;20555;-44
2022/06/26 03:00:14;;;;;;;5.75;4.75;;;17.20;99.90;;;;;;5004172;28;20046;-45
2022/06/26 03:02:42;;;;;;;7.45;5.82;;;17.20;99.90;;;;;;5018124;28;20156;-45
2022/06/26 03:05:08;;;;;;;7.95;5.15;;;17.20;99.90;;;;;;5014242;28;20507;-44
2022/06/26 03:07:34;;;;;;;6.43;5.15;;;17.20;99.90;;;;;;5018664;28;20064;-44
2022/06/26 03:10:00;;;;;;;7.05;4.78;;;17.20;99.90;;;;;;5008481;28;20045;-44
2022/06/26 03:12:26;;;;;;;5.40;4.90;;;17.20;99.90;;;;;;5020144;28;20395;-44
2022/06/26 03:14:52;;;;;;;8.50;4.72;;;17.20;99.90;;;;;;5020831;28;20049;-45
2022/06/26 03:17:19;;;;;;;5.63;4.95;;;17.20;99.90;;;;;;5016064;28;20052;-43
2022/06/26 03:19:44;;;;;;;6.40;4.57;;;17.20;99.90;;;;;;5017871;28;20083;-44
2022/06/26 03:22:10;;;;;;;5.68;5.03;;;17.20;99.90;;;;;;5021097;28;20791;-44
2022/06/26 03:24:36;;;;;;;7.15;5.15;;;17.20;99.90;;;;;;5019328;28;20077;-48
2022/06/26 03:27:02;;;;;;;5.65;5.07;;;17.20;99.90;;;;;;4992138;28;20053;-42
2022/06/26 03:29:28;;;;;;;6.80;6.10;;;17.20;99.90;;;;;;5008830;28;20412;-44
2022/06/26 03:31:55;;;;;;;8.38;5.88;;;17.10;99.90;;;;;;5002398;28;20057;-44
2022/06/26 03:34:21;;;;;;;5.65;5.20;;;17.10;99.90;;;;;;5023098;28;20056;-45
2022/06/26 03:36:47;;;;;;;15.57;6.45;;;17.20;99.90;;;;;;5018080;28;20049;-49
2022/06/26 03:39:12;;;;;;;7.35;6.60;;;17.20;99.90;;;;;;5023762;28;20041;-46
2022/06/26 03:41:39;;;;;;;6.88;5.63;;;17.20;99.90;;;;;;5018750;28;20136;-47
2022/06/26 03:44:06;;;;;;;7.00;5.20;;;17.20;99.90;;;;;;5023414;28;20056;-46
2022/06/26 03:46:32;;;;;;;7.68;5.43;;;17.20;99.90;;;;;;5006338;28;20489;-48
2022/06/26 03:48:59;;;;;;;5.95;4.97;;;17.20;99.90;;;;;;5037815;28;20367;-48
2022/06/26 03:51:25;;;;;;;6.60;6.00;;;17.30;99.90;;;;;;5043573;28;20067;-44
2022/06/26 03:53:51;;;;;;;6.15;5.65;;;17.40;99.90;;;;;;5044030;28;20049;-46
2022/06/26 03:56:17;;;;;;;6.13;5.22;;;17.40;99.90;;;;;;5043611;28;20479;-46
2022/06/26 03:58:43;;;;;;;6.93;6.22;;;17.40;99.90;;;;;;5042961;28;20055;-45
2022/06/26 04:01:10;;;;;;;7.38;5.85;;;17.50;99.90;;;;;;5043005;28;20052;-44
2022/06/26 04:03:35;;;;;;;6.60;6.00;;;17.50;99.90;;;;;;5041534;28;20126;-46
2022/06/26 04:06:01;;;;;;;6.82;6.13;;;17.60;99.90;;;;;;5042961;28;20055;-46
2022/06/26 04:08:27;;;;;;;7.03;6.38;;;17.60;99.90;;;;;;5041502;28;20136;-46
2022/06/26 04:10:53;;;;;;;6.43;5.88;;;17.60;99.90;;;;;;5043256;28;20162;-44
2022/06/26 04:13:23;;;;;;;9.68;7.43;;;17.60;99.90;;;;;;5045643;28;20132;-47
2022/06/26 04:15:49;;;;;;;8.05;6.78;;;17.60;99.90;;;;;;5043341;28;20507;-44
2022/06/26 04:18:15;;;;;;;8.55;7.75;;;17.70;99.90;;;;;;5043433;28;20055;-44
2022/06/26 04:20:41;;;;;;;8.30;7.50;;;17.70;99.90;;;;;;5043028;28;20398;-49
2022/06/26 04:23:10;;;;;;;8.45;7.50;;;17.70;99.90;;;;;;5042210;28;20395;-48
2022/06/26 04:25:38;;;;;;;8.73;7.63;;;17.70;99.90;;;;;;5039990;28;20132;-44
2022/06/26 04:28:05;;;;;;;7.43;6.68;;;17.70;99.90;;;;;;5044593;28;20103;-45
2022/06/26 04:30:31;;;;;;;8.18;7.40;;;17.70;99.90;;;;;;5044781;28;20098;-47
2022/06/26 04:33:02;;;;;;;7.97;7.18;;;17.70;99.90;;;;;;5046709;28;20076;-45
2022/06/26 04:35:28;;;;;;;8.00;7.30;;;17.60;99.90;;;;;;5046114;28;20084;-44
2022/06/26 04:37:54;;;;;;;7.78;6.97;;;17.70;99.90;;;;;;5041398;28;20129;-44
2022/06/26 04:40:20;;;;;;;8.77;7.97;;;17.70;99.90;;;;;;5058766;28;20438;-44
2022/06/26 04:42:46;;;;;;;9.00;7.47;;;17.70;99.90;;;;;;5044867;28;20049;-44
2022/06/26 04:45:12;;;;;;;9.45;8.55;;;17.70;99.90;;;;;;5045555;28;20481;-45
2022/06/26 04:47:39;;;;;;;9.15;8.18;;;17.80;99.90;;;;;;5040641;28;20156;-50
2022/06/26 04:50:06;;;;;;;10.32;9.45;;;17.80;99.90;;;;;;5043185;28;20056;-48
2022/06/26 04:52:33;;;;;;;10.13;9.32;;;17.80;99.90;;;;;;5041146;28;20124;-46
2022/06/26 04:54:59;;;;;;;9.43;8.68;;;17.90;99.90;;;;;;5042474;28;20414;-44
2022/06/26 04:57:25;;;;;;;9.65;8.85;;;17.80;99.90;;;;;;5041815;28;20415;-45
2022/06/26 04:59:51;;;;;;;10.00;9.00;;;17.90;99.90;;;;;;5042868;28;20095;-47
2022/06/26 05:02:17;;;;;;;10.75;9.85;;;18.00;99.90;;;;;;5048966;28;20483;-48
2022/06/26 05:04:48;;;;;;;11.48;10.38;;;18.10;99.90;;;;;;5044056;28;20067;-43
2022/06/26 05:07:14;;;;;;;12.45;11.18;;;18.10;99.90;;;;;;5035935;28;20040;-44
2022/06/26 05:09:40;;;;;;;14.30;10.30;;;18.10;99.90;;;;;;5042139;28;20632;-46
2022/06/26 05:12:06;;;;;;;12.10;10.90;;;18.10;99.90;;;;;;5042198;28;20136;-48
2022/06/26 05:14:32;;;;;;;15.65;13.40;;;18.10;99.90;;;;;;5042248;28;20051;-48
2022/06/26 05:16:57;;;;;;;15.82;14.45;;;18.10;99.90;;;;;;5040122;28;20061;-45
2022/06/26 05:19:23;;;;;;;15.98;14.30;;;18.10;99.90;;;;;;5025277;28;20114;-43
2022/06/26 05:21:49;;;;;;;21.40;19.40;;;18.10;99.90;;;;;;5018807;28;20067;-44
2022/06/26 05:24:15;;;;;;;23.52;21.30;;;18.00;99.90;;;;;;5040758;28;20527;-45
2022/06/26 05:26:41;;;;;;;26.73;24.25;;;18.10;99.90;;;;;;5040732;28;20045;-45
2022/06/26 05:29:06;;;;;;;30.02;27.23;;;18.10;99.90;;;;;;5040375;28;20432;-45
2022/06/26 05:31:32;;;;;;;30.15;27.15;;;18.00;99.90;;;;;;5042159;28;20041;-44
2022/06/26 05:33:59;;;;;;;32.05;29.02;;;17.90;99.90;;;;;;5041577;28;20371;-44
2022/06/26 05:36:25;;;;;;;34.20;30.75;;;17.90;99.90;;;;;;5041229;28;20064;-45
2022/06/26 05:38:50;;;;;;;33.53;30.40;;;17.90;99.90;;;;;;5041482;28;20068;-45
2022/06/26 05:41:16;;;;;;;32.80;29.80;;;18.00;99.90;;;;;;5038634;28;20045;-46
2022/06/26 05:43:42;;;;;;;32.65;29.45;;;18.10;99.90;;;;;;5041164;28;20055;-46
2022/06/26 05:46:08;;;;;;;31.27;28.35;;;18.20;99.90;;;;;;5042580;28;20080;-45
2022/06/26 05:48:33;;;;;;;33.25;29.83;;;18.20;99.90;;;;;;5037949;28;20157;-43
2022/06/26 05:50:59;;;;;;;32.03;28.60;;;18.10;99.90;;;;;;5030837;28;20150;-45
2022/06/26 05:53:25;;;;;;;30.83;28.02;;;18.10;99.90;;;;;;5008916;28;20077;-45
2022/06/26 05:55:50;;;;;;;31.45;28.38;;;18.10;99.90;;;;;;5015481;28;20065;-45
2022/06/26 05:58:16;;;;;;;29.70;26.77;;;18.20;99.90;;;;;;5025082;28;20676;-48
2022/06/26 06:00:42;;;;;;;29.55;26.80;;;18.20;99.90;;;;;;5010045;28;20046;-45
2022/06/26 06:03:08;;;;;;;28.38;25.63;;;18.20;99.90;;;;;;5023185;28;20141;-49
2022/06/26 06:05:39;;;;;;;28.23;25.40;;;18.30;99.90;;;;;;5024213;28;20159;-45
2022/06/26 06:08:05;;;;;;;30.58;27.48;;;18.30;99.90;;;;;;5020799;28;20152;-46
2022/06/26 06:10:31;;;;;;;29.42;26.55;;;18.20;99.90;;;;;;5021665;28;20706;-49
2022/06/26 06:12:56;;;;;;;29.45;26.38;;;18.20;99.90;;;;;;5021904;28;20041;-44
2022/06/26 06:15:22;;;;;;;30.98;27.95;;;18.20;99.90;;;;;;5023216;28;20379;-45
2022/06/26 06:17:48;;;;;;;30.58;27.67;;;18.20;99.90;;;;;;5017597;28;20064;-45
2022/06/26 06:20:19;;;;;;;30.58;27.55;;;18.20;99.90;;;;;;5015786;28;20052;-44
2022/06/26 06:22:54;;;;;;;31.30;28.23;;;18.30;99.90;;;;;;5033790;28;20072;-45
2022/06/26 06:25:22;;;;;;;32.33;29.15;;;18.50;99.90;;;;;;5025576;28;20053;-45
2022/06/26 06:27:48;;;;;;;31.15;27.83;;;19.40;99.90;;;;;;5023435;28;20049;-44
2022/06/26 06:30:14;;;;;;;28.00;25.15;;;20.50;99.90;;;;;;5024896;28;20084;-48
2022/06/26 06:32:41;;;;;;;26.95;24.35;;;21.40;99.90;;;;;;5024483;28;20064;-49
2022/06/26 06:35:08;;;;;;;26.15;23.45;;;22.00;99.90;;;;;;5005904;28;20053;-44
2022/06/26 06:37:34;;;;;;;24.52;22.33;;;22.50;99.90;;;;;;5004458;28;20041;-46
2022/06/26 06:40:00;;;;;;;26.05;23.65;;;22.80;99.90;;;;;;5001178;28;20105;-46
2022/06/26 06:42:26;;;;;;;25.30;23.00;;;22.70;99.90;;;;;;5020433;28;20045;-46
2022/06/26 06:44:52;;;;;;;22.88;20.67;;;22.80;99.90;;;;;;5020666;28;20448;-46
2022/06/26 06:47:17;;;;;;;23.38;21.23;;;23.20;99.90;;;;;;5027944;28;20073;-46
2022/06/26 06:49:43;;;;;;;23.45;21.13;;;24.00;99.90;;;;;;5040799;28;20107;-46
2022/06/26 06:52:09;;;;;;;22.30;20.20;;;24.30;99.90;;;;;;5040306;28;20048;-44
2022/06/26 06:54:35;;;;;;;21.88;19.92;;;24.40;99.90;;;;;;5040739;28;20084;-49
2022/06/26 06:57:00;;;;;;;17.80;16.30;;;25.30;99.90;;;;;;5043189;28;20064;-48
2022/06/26 06:59:26;;;;;;;18.50;16.98;;;26.40;99.90;;;;;;5041338;28;20053;-44
2022/06/26 07:01:52;;;;;;;17.45;15.80;;;27.70;99.90;;;;;;5041976;28;20053;-49
2022/06/26 07:04:18;;;;;;;19.63;17.60;;;28.30;99.90;;;;;;5056512;28;20562;-48
2022/06/26 07:06:45;;;;;;;17.95;16.35;;;27.90;99.90;;;;;;5040612;28;20092;-46
2022/06/26 07:09:11;;;;;;;16.90;15.43;;;26.80;99.90;;;;;;5037710;28;20449;-49
2022/06/26 07:11:36;;;;;;;16.23;14.85;;;25.60;99.90;;;;;;5037521;28;20292;-46
2022/06/26 07:14:06;;;;;;;14.63;13.23;;;24.50;99.90;;;;;;5039526;28;20092;-47
2022/06/26 07:16:31;;;;;;;14.80;13.35;;;24.10;99.90;;;;;;5037546;28;20053;-48
2022/06/26 07:18:57;;;;;;;13.25;11.90;;;25.10;99.90;;;;;;5027692;28;20053;-49
2022/06/26 07:21:23;;;;;;;14.25;12.75;;;26.20;99.90;;;;;;5030343;28;20156;-45
2022/06/26 07:23:49;;;;;;;15.43;14.02;;;26.40;99.90;;;;;;5041311;28;20056;-45
2022/06/26 07:26:15;;;;;;;11.77;10.68;;;25.70;99.90;;;;;;5040009;28;20056;-45
2022/06/26 07:28:40;;;;;;;10.52;9.63;;;25.60;99.90;;;;;;5037294;28;20527;-50
2022/06/26 07:31:06;;;;;;;12.90;10.07;;;26.00;99.90;;;;;;5028625;28;20060;-47
2022/06/26 07:36:16;;;;;;;7.53;6.07;;;26.30;99.90;;;;;;5036438;28;20144;-48
2022/06/26 07:38:42;;;;;;;7.22;6.35;;;26.40;99.90;;;;;;5038833;28;20384;-47
2022/06/26 07:41:11;;;;;;;6.35;5.75;;;26.50;99.90;;;;;;5039112;28;20044;-49
2022/06/26 07:43:36;;;;;;;4.50;3.80;;;26.40;99.90;;;;;;5038949;28;20308;-47
2022/06/26 07:46:02;;;;;;;4.88;4.45;;;26.60;99.90;;;;;;5029238;28;20056;-45
2022/06/26 07:48:28;;;;;;;6.32;5.00;;;26.60;99.90;;;;;;5039399;28;20052;-48
2022/06/26 07:50:54;;;;;;;4.60;3.95;;;26.60;99.90;;;;;;5038161;28;20053;-45
2022/06/26 07:53:20;;;;;;;6.18;4.90;;;26.50;99.90;;;;;;5039390;28;20056;-46
2022/06/26 07:55:46;;;;;;;8.25;5.80;;;26.20;99.90;;;;;;5047379;28;20052;-48
2022/06/26 07:58:11;;;;;;;6.68;6.07;;;26.20;99.90;;;;;;5039297;28;20045;-48
2022/06/26 08:00:37;;;;;;;8.18;6.07;;;26.10;99.90;;;;;;5039784;28;20529;-46
2022/06/26 08:03:13;;;;;;;7.53;5.60;;;25.70;99.90;;;;;;5040033;28;20076;-46
2022/06/26 08:05:41;;;;;;;8.23;6.88;;;25.30;99.90;;;;;;5035353;28;20442;-46
2022/06/26 08:08:07;;;;;;;6.90;6.20;;;24.90;99.90;;;;;;5036704;28;20124;-48
2022/06/26 08:10:33;;;;;;;10.93;7.70;;;24.70;99.90;;;;;;5040025;28;20300;-47
2022/06/26 08:12:59;;;;;;;7.72;7.00;;;24.50;99.90;;;;;;5041502;28;20088;-46
2022/06/26 08:15:26;;;;;;;8.82;7.93;;;24.40;99.90;;;;;;5040437;28;20156;-47
2022/06/26 08:17:52;;;;;;;9.23;7.30;;;24.30;99.90;;;;;;5041069;28;20101;-47
2022/06/26 08:20:17;;;;;;;6.70;6.03;;;24.10;99.90;;;;;;5039286;28;20526;-45
2022/06/26 08:22:43;;;;;;;6.55;5.68;;;23.90;99.90;;;;;;5038553;28;20061;-48
2022/06/26 08:25:09;;;;;;;7.07;6.03;;;24.00;99.90;;;;;;5041213;28;20049;-48
2022/06/26 08:27:35;;;;;;;7.18;6.57;;;24.40;99.90;;;;;;5042665;28;20051;-47
2022/06/26 08:30:01;;;;;;;6.32;5.72;;;24.70;99.90;;;;;;5043359;28;20067;-47
2022/06/26 08:32:26;;;;;;;8.23;6.50;;;24.70;99.90;;;;;;5043739;28;20739;-50
2022/06/26 08:34:52;;;;;;;7.75;5.60;;;24.90;99.90;;;;;;5048953;28;20494;-46
2022/06/26 08:37:18;;;;;;;6.68;5.95;;;25.10;99.90;;;;;;5042428;28;20048;-49
2022/06/26 08:39:44;;;;;;;7.95;6.55;;;25.20;99.90;;;;;;5045301;28;20064;-48
2022/06/26 08:42:10;;;;;;;8.75;6.55;;;25.30;99.90;;;;;;5047449;28;20052;-47
2022/06/26 08:44:45;;;;;;;7.75;4.85;;;25.00;99.90;;;;;;5044566;28;20060;-51
2022/06/26 08:47:12;;;;;;;7.22;5.82;;;24.90;99.90;;;;;;5043210;28;20057;-52
2022/06/26 08:49:39;;;;;;;10.13;6.88;;;25.00;99.90;;;;;;5045271;28;20095;-47
2022/06/26 08:52:08;;;;;;;7.28;5.60;;;24.80;99.90;;;;;;5043175;28;20663;-49
2022/06/26 08:54:34;;;;;;;6.03;5.30;;;24.70;99.90;;;;;;5042421;28;20453;-47
2022/06/26 08:57:00;;;;;;;7.03;5.72;;;24.40;99.90;;;;;;5024037;28;20435;-46
2022/06/26 08:59:27;;;;;;;8.85;6.30;;;24.30;99.90;;;;;;5026384;28;20053;-47
2022/06/26 09:01:53;;;;;;;6.70;6.00;;;24.00;99.90;;;;;;5044623;28;20049;-45
2022/06/26 09:04:18;;;;;;;9.88;6.00;;;24.00;99.90;;;;;;5042860;28;20052;-46
2022/06/26 09:06:45;;;;;;;8.40;5.57;;;24.20;99.90;;;;;;5005562;28;20431;-47
2022/06/26 09:09:17;;;;;;;7.85;5.30;;;24.40;99.90;;;;;;5026636;28;20053;-47
2022/06/26 09:11:45;;;;;;;5.78;5.22;;;24.50;99.90;;;;;;5041419;28;20578;-46
2022/06/26 09:14:12;;;;;;;7.45;5.55;;;24.50;99.90;;;;;;5042289;28;20399;-51
2022/06/26 09:16:40;;;;;;;8.18;4.57;;;24.40;99.90;;;;;;5042150;28;20083;-45
2022/06/26 09:19:13;;;;;;;5.78;4.18;;;24.30;99.90;;;;;;5041689;28;20097;-50
2022/06/26 09:21:41;;;;;;;6.85;5.10;;;24.60;99.90;;;;;;5039602;28;20059;-45
2022/06/26 09:24:12;;;;;;;7.10;4.05;;;24.60;99.90;;;;;;5028813;28;20393;-45
2022/06/26 09:26:43;;;;;;;5.30;3.33;;;24.50;99.90;;;;;;5040714;28;20051;-47
2022/06/26 09:29:09;;;;;;;5.80;3.40;;;24.70;99.90;;;;;;5036795;28;20599;-46
2022/06/26 09:31:45;;;;;;;5.85;3.60;;;24.70;99.90;;;;;;5028276;28;20458;-48
2022/06/26 09:34:25;;;;;;;6.40;4.10;;;24.80;99.90;;;;;;5041844;28;20063;-47
2022/06/26 09:36:58;;;;;;;6.15;4.13;;;24.90;99.90;;;;;;5039814;28;20057;-48
2022/06/26 09:39:28;;;;;;;6.82;3.45;;;25.10;99.90;;;;;;5024307;28;20045;-49
2022/06/26 09:41:54;;;;;;;7.30;3.97;;;25.10;99.90;;;;;;5021140;28;20054;-46
2022/06/26 09:44:21;;;;;;;7.55;3.88;;;25.20;99.90;;;;;;5031635;28;20118;-47
2022/06/26 09:46:48;;;;;;;6.65;3.40;;;25.20;99.90;;;;;;5041686;28;20388;-49
2022/06/26 09:49:14;;;;;;;6.85;3.60;;;25.30;99.90;;;;;;5034718;28;20368;-46
2022/06/26 09:51:40;;;;;;;5.45;3.30;;;25.30;99.90;;;;;;5042689;28;20056;-46
2022/06/26 09:54:06;;;;;;;6.78;3.85;;;25.30;99.90;;;;;;5033251;28;20625;-48
2022/06/26 09:56:33;;;;;;;4.43;2.95;;;25.40;99.90;;;;;;5041300;28;20052;-47
2022/06/26 09:58:59;;;;;;;6.47;3.30;;;25.50;99.90;;;;;;5041460;28;20041;-46
2022/06/26 10:07:02;;;;;;;5.80;3.45;;;25.40;99.90;;;;;;5041431;28;20071;-47
2022/06/26 10:09:29;;;;;;;7.38;3.40;;;25.30;99.90;;;;;;5026402;28;20057;-46
2022/06/26 10:12:00;;;;;;;5.10;3.15;;;25.10;99.90;;;;;;5042861;28;20103;-48
2022/06/26 10:14:35;;;;;;;7.43;3.63;;;25.20;99.80;;;;;;5041310;28;20061;-49
2022/06/26 10:17:36;;;;;;;6.95;4.10;;;25.10;99.60;;;;;;5039644;28;20053;-51
2022/06/26 10:20:06;;;;;;;7.07;3.47;;;24.90;99.30;;;;;;5040086;28;20045;-47
2022/06/26 10:22:43;;;;;;;5.15;3.75;;;24.90;99.40;;;;;;5042666;28;20497;-48
2022/06/26 10:25:30;;;;;;;8.27;4.10;;;25.00;99.80;;;;;;5037445;28;20556;-48
2022/06/26 10:27:57;;;;;;;5.40;4.40;;;25.10;99.30;;;;;;5042126;28;20044;-49
2022/06/26 10:30:26;;;;;;;9.02;4.90;;;25.10;99.90;;;;;;5040252;28;20056;-45
2022/06/26 10:33:18;;;;;;;6.38;4.15;;;25.10;99.90;;;;;;5041826;28;20049;-50
2022/06/26 10:35:49;;;;;;;10.02;4.47;;;25.00;99.90;;;;;;5015124;28;20068;-48
2022/06/26 10:38:26;;;;;;;7.93;5.40;;;25.00;99.90;;;;;;5040804;28;20076;-46
2022/06/26 10:44:15;;;;;;;6.05;5.18;;;24.80;99.90;;;;;;5034605;28;20084;-45
2022/06/26 10:46:47;;;;;;;7.95;5.18;;;24.70;99.90;;;;;;5035699;28;20044;-46
2022/06/26 10:49:18;;;;;;;8.80;4.53;;;24.70;99.90;;;;;;5045307;28;20140;-46
2022/06/26 10:51:45;;;;;;;7.03;5.32;;;24.70;99.90;;;;;;5045005;28;20120;-46
2022/06/26 10:54:23;;;;;;;9.57;5.93;;;24.80;99.90;;;;;;5036810;28;20101;-46
2022/06/26 10:57:16;;;;;;;8.80;5.10;;;25.10;99.90;;;;;;5042671;28;20530;-46
2022/06/26 10:59:44;;;;;;;6.10;5.18;;;25.20;99.90;;;;;;5039566;28;20056;-48
2022/06/26 11:02:12;;;;;;;6.25;5.40;;;25.10;99.90;;;;;;5041346;28;20521;-47
2022/06/26 11:04:49;;;;;;;6.63;4.75;;;25.00;99.90;;;;;;5023050;28;20415;-47
2022/06/26 11:07:16;;;;;;;7.47;5.15;;;25.00;99.90;;;;;;5040105;28;20052;-47
2022/06/26 11:09:42;;;;;;;7.30;4.97;;;24.80;99.90;;;;;;5039080;28;20487;-49
2022/06/26 11:12:08;;;;;;;5.90;5.30;;;24.80;99.90;;;;;;5039323;28;20051;-47
2022/06/26 11:14:34;;;;;;;8.77;5.15;;;24.70;99.90;;;;;;5039956;28;20064;-47
2022/06/26 11:17:00;;;;;;;9.82;6.82;;;24.80;99.90;;;;;;5038911;28;20048;-48
2022/06/26 11:19:27;;;;;;;7.90;5.57;;;24.70;99.90;;;;;;5039640;28;20486;-46
2022/06/26 11:22:11;;;;;;;7.05;5.90;;;24.70;99.90;;;;;;5038745;28;20084;-52
2022/06/26 11:24:48;;;;;;;7.90;5.88;;;24.70;99.90;;;;;;5039871;28;20478;-50
2022/06/26 11:27:14;;;;;;;10.45;6.38;;;24.60;99.90;;;;;;5035437;28;20056;-48
2022/06/26 11:29:40;;;;;;;8.32;7.53;;;24.50;99.90;;;;;;5039192;28;20049;-46
2022/06/26 11:32:07;;;;;;;7.70;6.90;;;24.50;99.90;;;;;;5039763;28;20122;-46
2022/06/26 11:34:32;;;;;;;8.45;7.20;;;24.50;99.90;;;;;;5041385;28;20151;-48
2022/06/26 11:37:01;;;;;;;8.20;6.80;;;24.40;99.90;;;;;;5041236;28;20051;-47
2022/06/26 11:39:37;;;;;;;7.15;6.35;;;24.50;99.90;;;;;;5044196;28;20098;-49
2022/06/26 11:42:17;;;;;;;7.63;6.75;;;24.60;99.90;;;;;;5022100;28;20048;-50
2022/06/26 11:44:47;;;;;;;7.35;6.53;;;24.50;99.90;;;;;;5034608;28;20052;-45
2022/06/26 11:47:13;;;;;;;7.97;4.65;;;24.70;99.90;;;;;;5039496;28;20072;-47
2022/06/26 11:49:40;;;;;;;7.45;4.72;;;24.60;99.90;;;;;;5039382;28;20049;-47
2022/06/26 11:52:07;;;;;;;6.82;4.30;;;24.50;99.90;;;;;;5021400;28;20055;-47
2022/06/26 11:54:33;;;;;;;5.65;4.30;;;24.60;99.90;;;;;;5021975;28;20057;-46
2022/06/26 11:57:10;;;;;;;5.68;4.00;;;24.50;99.40;;;;;;5040602;28;20121;-46
2022/06/26 11:59:43;;;;;;;7.00;4.55;;;24.60;99.90;;;;;;5043797;28;20098;-46
2022/06/26 12:02:22;;;;;;;6.95;4.95;;;24.60;99.90;;;;;;5043501;28;20454;-47
2022/06/26 12:05:02;;;;;;;6.90;4.70;;;24.70;99.90;;;;;;5046126;28;20163;-46
2022/06/26 12:07:43;;;;;;;6.80;4.85;;;24.70;99.90;;;;;;5039721;28;20056;-47
2022/06/26 12:10:10;;;;;;;7.00;5.45;;;24.70;99.90;;;;;;5042011;28;20499;-48
2022/06/26 12:12:35;;;;;;;8.43;6.15;;;24.70;99.90;;;;;;5043274;28;20090;-47
2022/06/26 12:15:01;;;;;;;7.93;5.93;;;24.70;99.90;;;;;;5024968;28;20053;-46
2022/06/26 12:17:29;;;;;;;9.15;6.03;;;24.50;99.90;;;;;;5040281;28;20083;-49
2022/06/26 12:20:05;;;;;;;8.85;5.88;;;24.50;99.90;;;;;;5042208;28;20466;-47
2022/06/26 12:22:33;;;;;;;6.78;6.10;;;24.40;99.90;;;;;;5033174;28;20061;-47
2022/06/26 12:24:59;;;;;;;7.97;7.18;;;24.20;99.90;;;;;;5042844;28;20132;-45
2022/06/26 12:27:35;;;;;;;8.20;7.50;;;24.20;99.90;;;;;;5043181;28;20131;-51
2022/06/26 12:30:01;;;;;;;9.98;8.18;;;24.10;99.90;;;;;;5035571;28;20418;-51
2022/06/26 12:32:26;;;;;;;8.95;8.05;;;24.10;99.90;;;;;;5037644;28;20132;-48
2022/06/26 12:34:52;;;;;;;10.95;7.63;;;24.00;99.90;;;;;;5042105;28;20045;-48
2022/06/26 12:37:18;;;;;;;8.75;7.85;;;24.00;99.90;;;;;;5041673;28;20063;-47
2022/06/26 12:39:44;;;;;;;10.88;8.98;;;24.00;99.90;;;;;;5042898;28;20059;-48
2022/06/26 12:42:09;;;;;;;9.98;9.00;;;23.90;99.90;;;;;;5031819;28;20514;-46
2022/06/26 12:44:35;;;;;;;12.85;9.68;;;24.00;99.90;;;;;;5043382;28;20052;-46
2022/06/26 12:47:01;;;;;;;10.60;9.57;;;24.00;99.90;;;;;;5041897;28;20418;-44
2022/06/26 12:49:27;;;;;;;10.88;8.70;;;24.10;99.90;;;;;;5043224;28;20052;-49
2022/06/26 12:51:53;;;;;;;11.43;9.38;;;24.20;99.90;;;;;;5042293;28;20139;-49
2022/06/26 12:54:19;;;;;;;9.45;8.50;;;24.20;99.90;;;;;;5043530;28;20121;-46